createdAt,value
2018-07-04T00:01:21.385Z,3.90
2018-07-04T00:03:55.113Z,6.77
2018-07-04T00:06:29.496Z,3.60
2018-07-04T00:09:03.544Z,6.97
2018-07-04T00:11:37.607Z,4.80
2018-07-04T00:14:11.536Z,5.43
2018-07-04T00:16:45.424Z,4.03
2018-07-04T00:19:19.767Z,5.13
2018-07-04T00:21:53.877Z,6.40
2018-07-04T00:24:27.816Z,5.43
2018-07-04T00:27:01.686Z,4.13
2018-07-04T00:29:35.950Z,6.03
2018-07-04T00:32:10.110Z,5.73
2018-07-04T00:34:44.369Z,6.87
2018-07-04T00:37:18.350Z,6.33
2018-07-04T00:39:52.469Z,8.43
2018-07-04T00:42:26.823Z,5.80
2018-07-04T00:45:01.341Z,6.90
2018-07-04T00:47:35.386Z,8.83
2018-07-04T00:50:09.661Z,6.13
2018-07-04T00:52:44.072Z,7.23
2018-07-04T00:55:17.860Z,8.07
2018-07-04T00:57:51.655Z,9.57
2018-07-04T01:00:25.597Z,8.93
2018-07-04T01:02:59.596Z,4.67
2018-07-04T01:05:33.698Z,6.27
2018-07-04T01:08:07.931Z,5.03
2018-07-04T01:10:42.142Z,6.37
2018-07-04T01:13:15.868Z,4.00
2018-07-04T01:15:49.780Z,4.57
2018-07-04T01:18:23.988Z,5.87
2018-07-04T01:21:03.181Z,5.17
2018-07-04T01:23:37.328Z,6.07
2018-07-04T01:26:11.748Z,5.67
2018-07-04T01:28:49.632Z,5.90
2018-07-04T01:31:23.872Z,6.07
2018-07-04T01:33:58.052Z,6.53
2018-07-04T01:36:31.776Z,8.60
2018-07-04T01:39:05.897Z,8.27
2018-07-04T01:41:39.823Z,10.40
2018-07-04T01:44:14.123Z,10.23
2018-07-04T01:46:48.584Z,7.20
2018-07-04T01:49:22.531Z,11.10
2018-07-04T01:51:56.648Z,7.50
2018-07-04T01:54:30.867Z,9.53
2018-07-04T01:57:04.933Z,6.30
2018-07-04T01:59:38.996Z,5.47
2018-07-04T02:02:13.369Z,10.93
2018-07-04T02:04:47.428Z,6.30
2018-07-04T02:07:21.969Z,8.90
2018-07-04T02:09:56.191Z,6.83
2018-07-04T02:12:30.438Z,7.00
2018-07-04T02:15:04.629Z,7.73
2018-07-04T02:17:38.875Z,6.50
2018-07-04T02:20:13.028Z,5.33
2018-07-04T02:22:46.964Z,5.50
2018-07-04T02:25:20.948Z,5.20
2018-07-04T02:27:55.086Z,4.97
2018-07-04T02:30:29.335Z,4.20
2018-07-04T02:33:03.196Z,4.23
2018-07-04T02:35:37.564Z,4.47
2018-07-04T02:38:11.957Z,3.63
2018-07-04T02:40:46.497Z,5.07
2018-07-04T02:43:20.397Z,5.83
2018-07-04T02:45:54.396Z,6.83
2018-07-04T02:48:28.598Z,6.43
2018-07-04T02:51:02.401Z,6.13
2018-07-04T02:53:36.616Z,5.27
2018-07-04T02:56:10.365Z,5.00
2018-07-04T02:58:44.569Z,6.03
2018-07-04T03:01:18.673Z,5.67
2018-07-04T03:03:52.887Z,5.43
2018-07-04T03:06:27.029Z,4.87
2018-07-04T03:09:01.346Z,4.63
2018-07-04T03:11:35.521Z,5.37
2018-07-04T03:14:09.747Z,3.17
2018-07-04T03:16:43.458Z,6.10
2018-07-04T03:19:17.361Z,4.10
2018-07-04T03:21:51.524Z,3.67
2018-07-04T03:24:25.676Z,4.47
2018-07-04T03:26:59.979Z,4.53
2018-07-04T03:29:34.112Z,5.50
2018-07-04T03:32:07.737Z,3.97
2018-07-04T03:34:41.932Z,4.47
2018-07-04T03:37:15.856Z,4.70
2018-07-04T03:39:50.077Z,6.57
2018-07-04T03:42:23.986Z,7.57
2018-07-04T03:44:58.403Z,5.00
2018-07-04T03:47:32.502Z,4.37
2018-07-04T03:50:06.333Z,5.83
2018-07-04T03:52:40.563Z,6.10
2018-07-04T03:55:14.225Z,5.40
2018-07-04T03:57:48.137Z,6.40
2018-07-04T04:00:22.054Z,3.93
2018-07-04T04:02:56.261Z,3.83
2018-07-04T04:05:30.197Z,5.40
2018-07-04T04:08:04.334Z,4.73
2018-07-04T04:10:38.188Z,4.97
2018-07-04T04:13:12.099Z,5.60
2018-07-04T04:15:46.140Z,4.70
2018-07-04T04:18:20.247Z,5.87
2018-07-04T04:20:54.256Z,5.57
2018-07-04T04:23:28.345Z,4.57
2018-07-04T04:26:02.408Z,5.53
2018-07-04T04:28:36.788Z,3.90
2018-07-04T04:31:10.812Z,4.53
2018-07-04T04:33:45.030Z,4.57
2018-07-04T04:36:19.225Z,5.57
2018-07-04T04:38:52.813Z,5.80
2018-07-04T04:41:26.981Z,3.57
2018-07-04T04:44:00.654Z,3.67
2018-07-04T04:46:35.069Z,3.43
2018-07-04T04:49:09.319Z,4.47
2018-07-04T04:51:43.501Z,3.90
2018-07-04T04:54:17.553Z,3.07
2018-07-04T04:56:51.724Z,4.27
2018-07-04T04:59:25.709Z,4.33
2018-07-04T05:01:59.547Z,5.27
2018-07-04T05:04:33.499Z,3.63
2018-07-04T05:07:07.389Z,5.03
2018-07-04T05:09:41.521Z,3.27
2018-07-04T05:12:15.689Z,4.43
2018-07-04T05:14:49.661Z,4.00
2018-07-04T05:17:23.812Z,5.63
2018-07-04T05:19:58.077Z,5.13
2018-07-04T05:22:32.276Z,3.63
2018-07-04T05:25:06.492Z,4.83
2018-07-04T05:27:40.408Z,4.03
2018-07-04T05:30:14.396Z,4.43
2018-07-04T05:32:48.300Z,5.10
2018-07-04T05:35:22.721Z,4.40
2018-07-04T05:37:56.728Z,4.60
2018-07-04T05:40:30.892Z,3.90
2018-07-04T05:43:04.877Z,5.83
2018-07-04T05:45:38.988Z,4.57
2018-07-04T05:48:13.012Z,3.63
2018-07-04T05:50:46.948Z,5.77
2018-07-04T05:53:20.796Z,4.57
2018-07-04T05:55:54.957Z,3.60
2018-07-04T05:58:28.832Z,4.87
2018-07-04T06:01:02.576Z,5.70
2018-07-04T06:03:36.763Z,5.47
2018-07-04T06:06:11.196Z,3.77
2018-07-04T06:08:44.996Z,4.30
2018-07-04T06:11:19.014Z,7.43
2018-07-04T06:13:53.242Z,5.83
2018-07-04T06:16:27.233Z,6.63
2018-07-04T06:19:01.168Z,3.50
2018-07-04T06:21:35.055Z,5.27
2018-07-04T06:24:08.990Z,5.87
2018-07-04T06:26:42.892Z,3.63
2018-07-04T06:29:17.016Z,3.43
2018-07-04T06:31:51.175Z,3.63
2018-07-04T06:34:25.237Z,2.97
2018-07-04T06:36:59.120Z,5.27
2018-07-04T06:39:27.104Z,2.87
2018-07-04T06:41:55.268Z,6.40
2018-07-04T06:44:23.035Z,4.37
2018-07-04T06:46:51.024Z,3.07
2018-07-04T06:49:18.902Z,5.43
2018-07-04T06:51:46.900Z,3.50
2018-07-04T06:54:14.731Z,4.20
2018-07-04T06:56:42.444Z,4.10
2018-07-04T06:59:10.557Z,3.40
2018-07-04T07:01:38.309Z,2.97
2018-07-04T07:04:12.425Z,5.97
2018-07-04T07:06:46.612Z,5.47
2018-07-04T07:09:20.578Z,4.17
2018-07-04T07:11:54.861Z,2.30
2018-07-04T07:14:28.803Z,4.37
2018-07-04T07:17:02.729Z,3.57
2018-07-04T07:19:36.897Z,2.20
2018-07-04T07:22:11.039Z,5.87
2018-07-04T07:24:44.724Z,2.90
2018-07-04T07:27:18.652Z,2.53
2018-07-04T07:29:52.514Z,3.50
2018-07-04T07:32:26.338Z,3.17
2018-07-04T07:35:00.532Z,2.77
2018-07-04T07:37:34.569Z,3.57
2018-07-04T07:40:08.696Z,3.80
2018-07-04T07:42:42.416Z,2.77
2018-07-04T07:45:16.309Z,4.23
2018-07-04T07:47:50.416Z,3.03
2018-07-04T07:50:24.420Z,4.30
2018-07-04T07:52:58.540Z,2.43
2018-07-04T07:55:32.532Z,2.60
2018-07-04T07:58:06.480Z,4.47
2018-07-04T08:00:40.879Z,3.17
2018-07-04T08:03:14.890Z,2.70
2018-07-04T08:05:48.818Z,2.77
2018-07-04T08:08:22.716Z,2.23
2018-07-04T08:10:56.820Z,2.77
2018-07-04T08:13:30.629Z,2.50
2018-07-04T08:16:04.427Z,2.53
2018-07-04T08:18:38.561Z,2.43
2018-07-04T08:21:12.541Z,3.20
2018-07-04T08:23:46.700Z,2.90
2018-07-04T08:26:20.620Z,3.47
2018-07-04T08:28:55.109Z,2.93
2018-07-04T08:31:28.821Z,3.20
2018-07-04T08:34:02.397Z,2.63
2018-07-04T08:36:36.530Z,2.37
2018-07-04T08:39:10.351Z,2.30
2018-07-04T08:41:44.057Z,2.80
2018-07-04T08:44:18.048Z,2.77
2018-07-04T08:46:52.198Z,3.73
2018-07-04T08:49:26.177Z,2.47
2018-07-04T08:52:00.084Z,1.93
2018-07-04T08:54:34.328Z,2.30
2018-07-04T08:57:08.216Z,2.23
2018-07-04T08:59:42.124Z,2.77
2018-07-04T09:02:16.032Z,2.20
2018-07-04T09:04:50.140Z,2.57
2018-07-04T09:07:24.031Z,2.50
2018-07-04T09:09:57.968Z,2.33
2018-07-04T09:12:32.077Z,2.10
2018-07-04T09:15:05.891Z,1.93
2018-07-04T09:17:39.817Z,2.93
2018-07-04T09:20:13.688Z,2.13
2018-07-04T09:22:47.816Z,2.23
2018-07-04T09:25:21.824Z,2.83
2018-07-04T09:27:55.745Z,3.27
2018-07-04T09:30:29.852Z,2.20
2018-07-04T09:33:03.884Z,2.50
2018-07-04T09:35:38.078Z,2.63
2018-07-04T09:38:11.993Z,2.33
2018-07-04T09:40:45.905Z,2.93
2018-07-04T09:43:19.792Z,2.27
2018-07-04T09:45:53.737Z,2.40
2018-07-04T09:48:27.600Z,2.90
2018-07-04T09:51:01.543Z,2.03
2018-07-04T09:53:35.617Z,2.53
2018-07-04T09:56:09.643Z,2.33
2018-07-04T09:58:43.627Z,3.57
2018-07-04T10:01:22.826Z,2.07
2018-07-04T10:03:56.887Z,2.57
2018-07-04T10:06:30.810Z,2.37
2018-07-04T10:09:04.684Z,2.37
2018-07-04T10:11:38.391Z,2.00
2018-07-04T10:14:12.208Z,2.47
2018-07-04T10:16:46.387Z,2.20
2018-07-04T10:19:20.550Z,1.80
2018-07-04T10:21:54.281Z,2.20
2018-07-04T10:24:28.163Z,1.90
2018-07-04T10:27:02.402Z,3.30
2018-07-04T10:29:36.832Z,2.47
2018-07-04T10:32:10.840Z,1.70
2018-07-04T10:34:44.985Z,1.80
2018-07-04T10:37:18.944Z,2.80
2018-07-04T10:39:52.908Z,1.93
2018-07-04T10:42:26.988Z,1.70
2018-07-04T10:45:00.703Z,1.97
2018-07-04T10:47:34.904Z,1.93
2018-07-04T10:50:09.041Z,1.97
2018-07-04T10:52:42.861Z,2.40
2018-07-04T10:55:16.836Z,2.10
2018-07-04T10:57:50.521Z,1.97
2018-07-04T11:00:24.477Z,1.70
2018-07-04T11:02:58.369Z,1.70
2018-07-04T11:05:32.481Z,1.73
2018-07-04T11:08:06.495Z,1.50
2018-07-04T11:10:40.412Z,2.97
2018-07-04T11:13:14.486Z,2.03
2018-07-04T11:15:48.700Z,1.70
2018-07-04T11:18:22.408Z,1.87
2018-07-04T11:20:56.648Z,1.93
2018-07-04T11:23:30.760Z,3.00
2018-07-04T11:26:04.796Z,1.70
2018-07-04T11:28:38.660Z,2.37
2018-07-04T11:31:12.280Z,2.10
2018-07-04T11:33:46.404Z,1.73
2018-07-04T11:36:20.432Z,1.80
2018-07-04T11:38:54.317Z,1.87
2018-07-04T11:41:28.234Z,1.60
2018-07-04T11:44:02.312Z,2.53
2018-07-04T11:46:30.240Z,1.67
2018-07-04T11:49:00.328Z,1.77
2018-07-04T11:51:28.092Z,1.50
2018-07-04T11:53:56.493Z,1.80
2018-07-04T11:56:24.375Z,3.87
2018-07-04T11:58:52.307Z,1.80
2018-07-04T12:01:20.693Z,2.00
2018-07-04T12:03:55.224Z,1.70
2018-07-04T12:06:29.432Z,2.37
2018-07-04T12:08:57.304Z,1.60
2018-07-04T12:11:25.377Z,2.33
2018-07-04T12:13:53.137Z,1.50
2018-07-04T12:16:21.306Z,1.60
2018-07-04T12:18:49.285Z,2.83
2018-07-04T12:21:17.252Z,1.60
2018-07-04T12:23:45.298Z,1.70
2018-07-04T12:26:13.201Z,1.97
2018-07-04T12:28:41.175Z,2.23
2018-07-04T12:31:09.511Z,1.90
2018-07-04T12:33:37.528Z,2.07
2018-07-04T12:36:05.689Z,1.60
2018-07-04T12:38:33.547Z,1.70
2018-07-04T12:41:01.342Z,1.60
2018-07-04T12:43:29.476Z,1.50
2018-07-04T12:45:57.458Z,1.50
2018-07-04T12:48:25.212Z,1.53
2018-07-04T12:50:53.018Z,1.50
2018-07-04T12:53:21.076Z,1.67
2018-07-04T12:55:54.984Z,1.50
2018-07-04T12:58:29.184Z,1.47
2018-07-04T13:01:03.589Z,1.63
2018-07-04T13:03:37.840Z,2.00
2018-07-04T13:06:11.709Z,1.80
2018-07-04T13:08:45.639Z,1.60
2018-07-04T13:11:19.324Z,1.50
2018-07-04T13:13:53.292Z,1.73
2018-07-04T13:16:27.174Z,1.73
2018-07-04T13:19:01.111Z,1.60
2018-07-04T13:21:35.185Z,1.60
2018-07-04T13:24:09.122Z,1.40
2018-07-04T13:26:43.125Z,1.50
2018-07-04T13:29:17.029Z,1.63
2018-07-04T13:31:51.265Z,1.63
2018-07-04T13:34:25.657Z,1.70
2018-07-04T13:36:59.666Z,1.53
2018-07-04T13:39:33.574Z,1.70
2018-07-04T13:42:07.485Z,1.67
2018-07-04T13:44:41.057Z,1.50
2018-07-04T13:47:15.200Z,2.00
2018-07-04T13:49:49.269Z,2.90
2018-07-04T13:52:23.137Z,1.57
2018-07-04T13:54:57.234Z,2.10
2018-07-04T13:57:31.276Z,1.40
2018-07-04T14:00:04.981Z,1.60
2018-07-04T14:02:38.976Z,1.77
2018-07-04T14:05:13.188Z,1.60
2018-07-04T14:07:47.087Z,1.60
2018-07-04T14:10:21.041Z,2.07
2018-07-04T14:12:54.812Z,2.50
2018-07-04T14:15:28.793Z,3.90
2018-07-04T14:18:02.704Z,4.53
2018-07-04T14:20:36.472Z,4.37
2018-07-04T14:23:10.581Z,5.03
2018-07-04T14:25:44.452Z,4.70
2018-07-04T14:28:18.361Z,4.53
2018-07-04T14:30:52.060Z,3.63
2018-07-04T14:33:25.980Z,6.10
2018-07-04T14:35:59.671Z,4.67
2018-07-04T14:38:33.359Z,5.53
2018-07-04T14:41:07.013Z,3.30
2018-07-04T14:43:40.990Z,3.27
2018-07-04T14:46:14.903Z,3.90
2018-07-04T14:48:48.760Z,5.30
2018-07-04T14:51:22.499Z,4.43
2018-07-04T14:53:56.635Z,3.50
2018-07-04T14:56:30.541Z,3.47
2018-07-04T14:59:04.521Z,3.23
2018-07-04T15:01:38.255Z,3.00
2018-07-04T15:04:12.223Z,2.60
2018-07-04T15:06:46.108Z,2.77
2018-07-04T15:09:19.677Z,3.17
2018-07-04T15:11:53.903Z,2.77
2018-07-04T15:14:27.904Z,3.13
2018-07-04T15:17:01.816Z,2.40
2018-07-04T15:19:35.528Z,3.60
2018-07-04T15:22:09.261Z,3.03
2018-07-04T15:24:43.032Z,3.00
2018-07-04T15:27:16.756Z,4.50
2018-07-04T15:29:50.476Z,2.80
2018-07-04T15:32:24.307Z,2.83
2018-07-04T15:34:58.492Z,3.23
2018-07-04T15:37:32.177Z,2.37
2018-07-04T15:40:06.304Z,3.27
2018-07-04T15:42:39.973Z,2.23
2018-07-04T15:45:13.601Z,2.93
2018-07-04T15:47:47.736Z,3.33
2018-07-04T15:50:21.485Z,3.53
2018-07-04T15:52:55.317Z,2.20
2018-07-04T15:55:29.220Z,4.60
2018-07-04T15:58:03.133Z,2.73
2018-07-04T16:00:37.338Z,2.50
2018-07-04T16:03:11.468Z,2.20
2018-07-04T16:05:45.327Z,3.03
2018-07-04T16:08:19.074Z,2.40
2018-07-04T16:10:52.986Z,3.27
2018-07-04T16:13:27.000Z,2.80
2018-07-04T16:16:00.821Z,2.20
2018-07-04T16:18:34.920Z,2.53
2018-07-04T16:21:08.641Z,2.20
2018-07-04T16:23:42.430Z,2.40
2018-07-04T16:26:16.537Z,2.93
2018-07-04T16:28:50.655Z,3.87
2018-07-04T16:31:24.596Z,2.40
2018-07-04T16:33:58.666Z,2.33
2018-07-04T16:36:32.924Z,2.20
2018-07-04T16:39:07.113Z,2.30
2018-07-04T16:41:41.431Z,2.27
2018-07-04T16:44:15.316Z,4.57
2018-07-04T16:46:49.238Z,4.03
2018-07-04T16:49:23.374Z,3.70
2018-07-04T16:51:57.580Z,2.37
2018-07-04T16:54:31.796Z,3.13
2018-07-04T16:57:06.013Z,2.53
2018-07-04T16:59:39.715Z,2.80
2018-07-04T17:02:13.813Z,2.73
2018-07-04T17:04:48.148Z,3.07
2018-07-04T17:07:22.060Z,3.63
2018-07-04T17:09:56.008Z,2.83
2018-07-04T17:12:30.064Z,3.03
2018-07-04T17:15:03.716Z,2.10
2018-07-04T17:17:37.672Z,3.83
2018-07-04T17:20:11.917Z,2.23
2018-07-04T17:22:46.340Z,2.10
2018-07-04T17:25:20.320Z,2.20
2018-07-04T17:27:54.255Z,2.63
2018-07-04T17:30:28.168Z,3.23
2018-07-04T17:33:02.077Z,3.10
2018-07-04T17:35:36.286Z,2.77
2018-07-04T17:38:10.107Z,2.97
2018-07-04T17:40:44.288Z,2.50
2018-07-04T17:43:18.308Z,2.83
2018-07-04T17:45:52.260Z,2.30
2018-07-04T17:48:27.002Z,2.03
2018-07-04T17:51:00.899Z,2.90
2018-07-04T17:53:35.090Z,2.27
2018-07-04T17:56:08.832Z,2.20
2018-07-04T17:58:43.007Z,2.43
2018-07-04T18:01:17.120Z,2.50
2018-07-04T18:03:51.108Z,2.30
2018-07-04T18:06:25.276Z,2.40
2018-07-04T18:08:59.245Z,2.27
2018-07-04T18:11:33.256Z,2.30
2018-07-04T18:14:07.304Z,2.90
2018-07-04T18:16:41.582Z,2.40
2018-07-04T18:19:15.956Z,3.47
2018-07-04T18:21:50.008Z,4.13
2018-07-04T18:24:24.139Z,4.73
2018-07-04T18:26:59.078Z,5.13
2018-07-04T18:29:32.685Z,6.53
2018-07-04T18:32:07.009Z,6.90
2018-07-04T18:34:41.140Z,7.13
2018-07-04T18:37:15.204Z,7.63
2018-07-04T18:39:49.270Z,8.70
2018-07-04T18:42:23.465Z,9.50
2018-07-04T18:44:57.084Z,9.90
2018-07-04T18:47:30.969Z,9.93
2018-07-04T18:50:04.864Z,10.20
2018-07-04T18:52:39.704Z,9.50
2018-07-04T18:55:14.149Z,9.33
2018-07-04T18:57:48.128Z,9.70
2018-07-04T19:00:22.285Z,8.77
2018-07-04T19:02:55.985Z,8.63
2018-07-04T19:05:30.050Z,7.33
2018-07-04T19:08:03.701Z,8.13
2018-07-04T19:10:37.994Z,7.77
2018-07-04T19:13:12.432Z,9.07
2018-07-04T19:15:46.335Z,6.80
2018-07-04T19:18:20.542Z,8.17
2018-07-04T19:20:54.228Z,7.57
2018-07-04T19:23:28.428Z,7.33
2018-07-04T19:26:02.026Z,5.30
2018-07-04T19:28:35.968Z,6.43
2018-07-04T19:31:10.060Z,4.90
2018-07-04T19:33:44.021Z,4.77
2018-07-04T19:36:17.993Z,5.47
2018-07-04T19:38:51.940Z,4.23
2018-07-04T19:41:26.029Z,5.90
2018-07-04T19:43:59.735Z,5.70
2018-07-04T19:46:33.874Z,5.60
2018-07-04T19:49:08.041Z,5.87
2018-07-04T19:51:42.256Z,5.73
2018-07-04T19:54:16.596Z,5.00
2018-07-04T19:56:50.718Z,6.60
2018-07-04T19:59:24.703Z,6.13
2018-07-04T20:01:58.636Z,5.57
2018-07-04T20:04:32.542Z,6.77
2018-07-04T20:07:06.448Z,8.53
2018-07-04T20:09:40.356Z,5.63
2018-07-04T20:12:14.527Z,6.67
2018-07-04T20:14:49.000Z,5.33
2018-07-04T20:17:22.889Z,7.40
2018-07-04T20:19:56.792Z,4.53
2018-07-04T20:22:30.860Z,5.30
2018-07-04T20:25:04.944Z,6.17
2018-07-04T20:27:38.846Z,4.60
2018-07-04T20:30:12.532Z,5.10
2018-07-04T20:32:46.363Z,6.97
2018-07-04T20:35:20.606Z,5.23
2018-07-04T20:37:54.328Z,6.00
2018-07-04T20:40:28.192Z,6.97
2018-07-04T20:43:02.139Z,4.00
2018-07-04T20:45:36.008Z,7.60
2018-07-04T20:48:10.429Z,8.97
2018-07-04T20:50:44.424Z,4.33
2018-07-04T20:53:18.579Z,5.63
2018-07-04T20:55:52.821Z,4.20
2018-07-04T20:58:27.020Z,6.70
2018-07-04T21:01:00.668Z,4.40
2018-07-04T21:03:34.817Z,5.40
2018-07-04T21:06:09.143Z,5.57
2018-07-04T21:08:43.034Z,7.87
2018-07-04T21:11:17.622Z,5.53
2018-07-04T21:13:51.786Z,5.77
2018-07-04T21:16:25.945Z,6.03
2018-07-04T21:18:59.903Z,5.53
2018-07-04T21:21:33.914Z,6.80
2018-07-04T21:24:08.031Z,5.40
2018-07-04T21:26:41.915Z,4.57
2018-07-04T21:29:15.844Z,6.30
2018-07-04T21:31:49.736Z,4.60
2018-07-04T21:34:23.840Z,4.93
2018-07-04T21:36:58.084Z,4.57
2018-07-04T21:39:32.132Z,4.23
2018-07-04T21:42:06.324Z,5.80
2018-07-04T21:44:40.218Z,5.40
2018-07-04T21:47:14.125Z,5.00
2018-07-04T21:49:48.216Z,4.13
2018-07-04T21:52:22.457Z,5.50
2018-07-04T21:54:56.328Z,5.53
2018-07-04T21:57:30.100Z,6.23
2018-07-04T22:00:04.168Z,4.70
2018-07-04T22:02:38.219Z,4.67
2018-07-04T22:05:12.413Z,4.37
2018-07-04T22:07:46.302Z,5.87
2018-07-04T22:10:20.457Z,5.70
2018-07-04T22:12:54.656Z,4.70
2018-07-04T22:15:28.767Z,7.20
2018-07-04T22:18:02.889Z,5.20
2018-07-04T22:20:37.016Z,5.10
2018-07-04T22:23:10.701Z,4.80
2018-07-04T22:25:44.840Z,3.90
2018-07-04T22:28:18.519Z,6.23
2018-07-04T22:30:52.733Z,4.63
2018-07-04T22:33:26.621Z,4.53
2018-07-04T22:36:00.861Z,4.30
2018-07-04T22:38:34.952Z,5.17
2018-07-04T22:41:09.228Z,4.20
2018-07-04T22:43:43.409Z,4.73
2018-07-04T22:46:18.032Z,3.97
2018-07-04T22:48:51.941Z,5.07
2018-07-04T22:51:26.157Z,4.90
2018-07-04T22:53:59.965Z,6.10
2018-07-04T22:56:33.692Z,4.67
2018-07-04T22:59:07.357Z,5.17
2018-07-04T23:01:41.717Z,5.23
2018-07-04T23:04:15.886Z,5.20
2018-07-04T23:06:49.917Z,5.47
2018-07-04T23:09:24.036Z,6.40
2018-07-04T23:11:57.941Z,4.77
2018-07-04T23:14:32.132Z,4.20
2018-07-04T23:17:06.375Z,5.83
2018-07-04T23:19:40.597Z,4.07
2018-07-04T23:22:14.732Z,5.13
2018-07-04T23:24:48.507Z,7.70
2018-07-04T23:27:22.420Z,4.70
2018-07-04T23:29:56.853Z,4.37
2018-07-04T23:32:30.577Z,4.97
2018-07-04T23:35:04.437Z,6.83
2018-07-04T23:37:38.375Z,4.30
2018-07-04T23:40:12.277Z,6.33
2018-07-04T23:42:46.392Z,7.70
2018-07-04T23:45:20.232Z,4.40
2018-07-04T23:47:54.216Z,5.67
2018-07-04T23:50:28.118Z,5.40
2018-07-04T23:53:02.156Z,4.53
2018-07-04T23:55:36.036Z,5.60
2018-07-04T23:58:10.132Z,6.90
